createdAt,value
2019-04-03T00:01:14.614Z,13.41
2019-04-03T00:05:21.287Z,13.46
2019-04-03T00:09:27.959Z,13.32
2019-04-03T00:13:34.703Z,13.34
2019-04-03T00:17:41.515Z,13.25
2019-04-03T00:21:50.610Z,13.24
2019-04-03T00:25:57.848Z,13.18
2019-04-03T00:30:05.181Z,13.17
2019-04-03T00:34:12.072Z,13.23
2019-04-03T00:38:19.840Z,13.14
2019-04-03T00:42:26.594Z,13.05
2019-04-03T00:46:33.266Z,13.05
2019-04-03T00:50:40.040Z,13.07
2019-04-03T00:54:46.726Z,13.06
2019-04-03T00:58:55.011Z,12.93
2019-04-03T01:03:02.050Z,12.90
2019-04-03T01:07:08.889Z,12.87
2019-04-03T01:11:15.571Z,12.78
2019-04-03T01:15:22.424Z,12.66
2019-04-03T01:19:29.202Z,12.70
2019-04-03T01:23:38.005Z,12.76
2019-04-03T01:27:44.317Z,12.84
2019-04-03T01:31:51.078Z,12.67
2019-04-03T01:35:58.030Z,12.57
2019-04-03T01:40:05.187Z,12.64
2019-04-03T01:44:11.962Z,12.68
2019-04-03T01:48:18.576Z,12.65
2019-04-03T01:52:25.357Z,12.68
2019-04-03T01:56:32.097Z,12.74
2019-04-03T02:00:38.834Z,12.75
2019-04-03T02:04:45.597Z,12.71
2019-04-03T02:08:52.384Z,12.73
2019-04-03T02:12:59.378Z,12.75
2019-04-03T02:17:06.083Z,12.81
2019-04-03T02:21:13.763Z,12.84
2019-04-03T02:25:20.424Z,12.91
2019-04-03T02:29:27.091Z,12.78
2019-04-03T02:33:33.944Z,12.79
2019-04-03T02:37:40.849Z,12.53
2019-04-03T02:41:48.613Z,12.69
2019-04-03T02:45:56.303Z,12.81
2019-04-03T02:50:03.718Z,12.48
2019-04-03T02:54:27.308Z,12.53
2019-04-03T02:58:33.971Z,12.59
2019-04-03T03:02:44.117Z,12.39
2019-04-03T03:06:49.151Z,12.33
2019-04-03T03:10:57.847Z,12.32
2019-04-03T03:15:11.197Z,12.23
2019-04-03T03:19:16.401Z,12.22
2019-04-03T03:23:24.513Z,12.18
2019-04-03T03:27:31.895Z,12.10
2019-04-03T03:32:02.422Z,12.12
2019-04-03T03:35:50.577Z,12.11
2019-04-03T03:39:58.045Z,11.99
2019-04-03T03:44:09.927Z,11.94
2019-04-03T03:48:14.472Z,11.88
2019-04-03T03:52:21.479Z,11.77
2019-04-03T03:56:31.578Z,11.86
2019-04-03T04:00:37.874Z,11.93
2019-04-03T04:04:48.044Z,11.87
2019-04-03T04:08:53.758Z,11.82
2019-04-03T04:13:01.406Z,11.79
2019-04-03T04:17:12.439Z,11.78
2019-04-03T04:21:18.029Z,11.66
2019-04-03T04:25:24.937Z,11.56
2019-04-03T04:29:32.228Z,11.59
2019-04-03T04:33:38.956Z,11.42
2019-04-03T04:37:45.681Z,11.45
2019-04-03T04:41:52.731Z,11.47
2019-04-03T04:45:59.517Z,11.43
2019-04-03T04:50:06.850Z,11.41
2019-04-03T04:54:13.531Z,11.43
2019-04-03T04:58:20.286Z,11.36
2019-04-03T05:02:28.008Z,11.29
2019-04-03T05:06:34.752Z,11.30
2019-04-03T05:10:41.758Z,11.28
2019-04-03T05:14:48.901Z,11.23
2019-04-03T05:19:08.203Z,11.33
2019-04-03T05:23:04.846Z,11.39
2019-04-03T05:27:11.511Z,11.36
2019-04-03T05:31:19.227Z,11.42
2019-04-03T05:35:27.345Z,11.35
2019-04-03T05:39:34.115Z,11.40
2019-04-03T05:43:40.847Z,11.25
2019-04-03T05:47:47.863Z,11.26
2019-04-03T05:51:55.265Z,11.36
2019-04-03T05:56:02.963Z,11.25
2019-04-03T06:00:10.723Z,11.44
2019-04-03T06:04:17.428Z,11.35
2019-04-03T06:08:24.132Z,11.32
2019-04-03T06:12:30.869Z,11.45
2019-04-03T06:16:37.655Z,11.31
2019-04-03T06:20:44.983Z,11.47
2019-04-03T06:24:51.639Z,11.43
2019-04-03T06:28:58.615Z,11.50
2019-04-03T06:33:05.421Z,11.45
2019-04-03T06:37:13.358Z,11.36
2019-04-03T06:41:20.410Z,11.49
2019-04-03T06:45:27.186Z,11.49
2019-04-03T06:49:34.006Z,11.39
2019-04-03T06:53:40.852Z,11.68
2019-04-03T06:57:47.655Z,11.81
2019-04-03T07:01:54.919Z,11.78
2019-04-03T07:06:01.757Z,11.76
2019-04-03T07:10:09.819Z,11.83
2019-04-03T07:14:17.970Z,11.96
2019-04-03T07:18:24.875Z,11.64
2019-04-03T07:22:31.837Z,11.93
2019-04-03T07:26:38.596Z,11.93
2019-04-03T07:30:45.731Z,11.98
2019-04-03T07:34:52.625Z,12.22
2019-04-03T07:38:59.774Z,11.93
2019-04-03T07:43:06.598Z,12.06
2019-04-03T07:47:13.415Z,11.92
2019-04-03T07:51:20.411Z,11.98
2019-04-03T07:55:28.515Z,11.78
2019-04-03T07:59:35.903Z,12.08
2019-04-03T08:03:43.048Z,12.08
2019-04-03T08:07:50.081Z,12.02
2019-04-03T08:11:57.012Z,12.14
2019-04-03T08:16:04.923Z,12.22
2019-04-03T08:20:11.919Z,12.36
2019-04-03T08:24:18.700Z,12.34
2019-04-03T08:28:28.011Z,12.52
2019-04-03T08:32:34.534Z,12.74
2019-04-03T08:36:41.690Z,12.52
2019-04-03T08:40:51.392Z,12.56
2019-04-03T08:44:57.375Z,12.83
2019-04-03T08:49:04.080Z,12.78
2019-04-03T08:53:11.017Z,12.77
2019-04-03T08:57:20.448Z,12.88
2019-04-03T09:01:26.571Z,12.90
2019-04-03T09:05:33.350Z,13.01
2019-04-03T09:09:40.600Z,12.77
2019-04-03T09:13:47.437Z,12.93
2019-04-03T09:17:54.652Z,12.78
2019-04-03T09:22:01.848Z,12.76
2019-04-03T09:26:08.634Z,12.66
2019-04-03T09:30:16.842Z,12.54
2019-04-03T09:34:23.610Z,12.24
2019-04-03T09:38:30.923Z,11.63
2019-04-03T09:42:37.923Z,11.46
2019-04-03T09:46:45.239Z,11.22
2019-04-03T09:50:52.377Z,11.12
2019-04-03T09:55:00.295Z,11.20
2019-04-03T09:59:08.209Z,11.04
2019-04-03T10:03:14.991Z,10.58
2019-04-03T10:07:21.822Z,10.77
2019-04-03T10:11:28.652Z,10.36
2019-04-03T10:15:35.692Z,10.59
2019-04-03T10:19:45.569Z,10.69
2019-04-03T10:23:52.416Z,10.36
2019-04-03T10:28:01.075Z,10.63
2019-04-03T10:32:08.104Z,10.39
2019-04-03T10:36:17.528Z,10.45
2019-04-03T10:40:25.081Z,10.21
2019-04-03T10:44:37.919Z,10.07
2019-04-03T10:48:44.895Z,10.36
2019-04-03T10:52:51.643Z,10.11
2019-04-03T10:56:58.692Z,10.36
2019-04-03T11:01:05.777Z,10.62
2019-04-03T11:05:13.987Z,10.19
2019-04-03T11:09:21.160Z,10.76
2019-04-03T11:13:28.024Z,11.15
2019-04-03T11:17:35.111Z,10.68
2019-04-03T11:21:44.043Z,11.75
2019-04-03T11:25:50.686Z,11.89
2019-04-03T11:29:57.609Z,11.66
2019-04-03T11:34:04.678Z,11.97
2019-04-03T11:38:15.538Z,11.94
2019-04-03T11:42:24.488Z,11.71
2019-04-03T11:46:28.652Z,11.52
2019-04-03T11:50:35.730Z,12.06
2019-04-03T11:54:42.790Z,12.50
2019-04-03T11:58:51.352Z,13.94
2019-04-03T12:02:58.334Z,13.88
2019-04-03T12:07:05.159Z,14.76
2019-04-03T12:11:11.863Z,14.06
2019-04-03T12:15:21.382Z,14.10
2019-04-03T12:19:28.282Z,13.54
2019-04-03T12:23:34.954Z,13.40
2019-04-03T12:27:45.003Z,13.94
2019-04-03T12:31:51.264Z,13.66
2019-04-03T12:35:58.546Z,13.81
2019-04-03T12:40:06.340Z,13.56
2019-04-03T12:44:13.414Z,12.79
2019-04-03T12:48:20.438Z,12.84
2019-04-03T12:52:27.474Z,12.05
2019-04-03T12:56:34.170Z,12.26
2019-04-03T13:00:40.863Z,12.42
2019-04-03T13:04:48.097Z,11.97
2019-04-03T13:08:54.942Z,11.47
2019-04-03T13:13:01.678Z,11.61
2019-04-03T13:17:08.491Z,11.47
2019-04-03T13:21:15.392Z,11.29
2019-04-03T13:25:22.344Z,11.60
2019-04-03T13:29:29.686Z,11.40
2019-04-03T13:33:38.727Z,11.21
2019-04-03T13:37:45.171Z,11.20
2019-04-03T13:41:52.072Z,11.09
2019-04-03T13:46:03.841Z,11.81
2019-04-03T13:50:10.814Z,12.30
2019-04-03T13:54:18.634Z,13.01
2019-04-03T13:58:28.539Z,13.31
2019-04-03T14:02:35.850Z,12.99
2019-04-03T14:06:42.989Z,13.13
2019-04-03T14:10:49.682Z,12.24
2019-04-03T14:14:56.403Z,12.27
2019-04-03T14:19:03.598Z,12.16
2019-04-03T14:23:10.359Z,11.89
2019-04-03T14:27:23.876Z,11.75
2019-04-03T14:31:34.842Z,12.08
2019-04-03T14:35:47.473Z,11.82
2019-04-03T14:39:43.441Z,11.97
2019-04-03T14:43:50.859Z,11.67
2019-04-03T14:47:57.815Z,11.67
2019-04-03T14:52:04.610Z,11.77
2019-04-03T14:56:11.576Z,11.64
2019-04-03T15:00:30.273Z,11.63
2019-04-03T15:04:27.472Z,11.76
2019-04-03T15:08:34.847Z,11.66
2019-04-03T15:12:41.647Z,11.51
2019-04-03T15:16:48.713Z,11.76
2019-04-03T15:20:55.584Z,11.09
2019-04-03T15:25:03.717Z,11.33
2019-04-03T15:29:10.847Z,10.99
2019-04-03T15:33:17.737Z,10.99
2019-04-03T15:37:24.659Z,11.06
2019-04-03T15:41:34.178Z,11.03
2019-04-03T15:45:40.352Z,10.88
2019-04-03T15:49:47.452Z,10.54
2019-04-03T15:53:55.041Z,10.81
2019-04-03T15:58:01.783Z,10.46
2019-04-03T16:02:11.489Z,9.99
2019-04-03T16:06:17.903Z,10.00
2019-04-03T16:10:24.827Z,9.82
2019-04-03T16:14:31.877Z,10.11
2019-04-03T16:18:39.027Z,9.57
2019-04-03T16:22:46.002Z,9.47
2019-04-03T16:26:56.201Z,9.26
2019-04-03T16:31:01.326Z,9.03
2019-04-03T16:35:09.009Z,8.76
2019-04-03T16:39:17.840Z,8.91
2019-04-03T16:43:24.278Z,8.94
2019-04-03T16:47:33.599Z,8.85
2019-04-03T16:51:40.703Z,8.50
2019-04-03T16:55:47.638Z,8.52
2019-04-03T16:59:54.447Z,8.59
2019-04-03T17:04:04.361Z,8.01
2019-04-03T17:08:10.602Z,8.26
2019-04-03T17:12:17.873Z,8.00
2019-04-03T17:16:25.010Z,7.95
2019-04-03T17:20:32.098Z,8.06
2019-04-03T17:24:44.204Z,7.77
2019-04-03T17:28:47.297Z,7.83
2019-04-03T17:32:54.211Z,7.91
2019-04-03T17:37:01.447Z,7.70
2019-04-03T17:41:08.321Z,7.51
2019-04-03T17:45:16.242Z,7.56
2019-04-03T17:49:24.640Z,7.57
2019-04-03T17:53:31.895Z,7.60
2019-04-03T17:57:38.596Z,7.47
2019-04-03T18:01:46.343Z,7.30
2019-04-03T18:05:56.499Z,7.24
2019-04-03T18:10:01.669Z,7.10
2019-04-03T18:14:08.452Z,7.17
2019-04-03T18:18:15.234Z,7.14
2019-04-03T18:22:22.208Z,7.21
2019-04-03T18:26:30.626Z,7.07
2019-04-03T18:30:42.230Z,7.23
2019-04-03T18:34:51.150Z,7.20
2019-04-03T18:38:57.493Z,7.12
2019-04-03T18:43:04.494Z,7.27
2019-04-03T18:47:12.735Z,7.28
2019-04-03T18:51:20.370Z,7.09
2019-04-03T18:55:27.279Z,6.98
2019-04-03T18:59:34.007Z,7.12
2019-04-03T19:03:40.811Z,7.08
2019-04-03T19:07:47.591Z,7.01
2019-04-03T19:11:54.246Z,7.15
2019-04-03T19:16:08.518Z,7.23
2019-04-03T19:20:22.710Z,7.12
2019-04-03T19:24:29.506Z,6.96
2019-04-03T19:28:39.427Z,7.25
2019-04-03T19:32:46.144Z,7.04
2019-04-03T19:36:52.918Z,7.14
2019-04-03T19:40:59.648Z,7.06
2019-04-03T19:45:13.141Z,7.27
2019-04-03T19:49:40.274Z,7.30
2019-04-03T19:53:58.630Z,7.23
2019-04-03T19:57:58.833Z,7.31
2019-04-03T20:02:05.655Z,7.04
2019-04-03T20:06:12.677Z,7.35
2019-04-03T20:10:19.354Z,7.35
2019-04-03T20:14:32.350Z,7.42
2019-04-03T20:18:39.808Z,7.56
2019-04-03T20:22:46.793Z,7.50
2019-04-03T20:26:54.278Z,7.13
2019-04-03T20:31:01.184Z,7.28
2019-04-03T20:35:08.707Z,7.27
2019-04-03T20:39:15.415Z,7.31
2019-04-03T20:43:22.215Z,7.31
2019-04-03T20:47:29.007Z,7.12
2019-04-03T20:51:39.900Z,7.23
2019-04-03T20:55:48.377Z,7.09
2019-04-03T21:00:02.252Z,7.21
2019-04-03T21:04:03.639Z,7.30
2019-04-03T21:08:10.392Z,7.11
2019-04-03T21:12:17.125Z,7.25
2019-04-03T21:16:33.133Z,7.18
2019-04-03T21:20:34.220Z,7.04
2019-04-03T21:24:56.360Z,7.14
2019-04-03T21:29:06.934Z,7.19
2019-04-03T21:33:17.953Z,7.12
2019-04-03T21:37:25.116Z,7.02
2019-04-03T21:41:32.025Z,7.13
2019-04-03T21:45:39.315Z,6.89
2019-04-03T21:49:47.684Z,7.16
2019-04-03T21:53:56.530Z,7.01
2019-04-03T21:58:03.133Z,7.16
2019-04-03T22:02:09.982Z,7.16
2019-04-03T22:06:17.327Z,7.18
2019-04-03T22:10:24.093Z,7.22
2019-04-03T22:14:31.444Z,7.23
2019-04-03T22:18:38.292Z,7.24
2019-04-03T22:22:45.267Z,7.28
2019-04-03T22:26:52.044Z,7.10
2019-04-03T22:30:58.967Z,6.95
2019-04-03T22:35:09.687Z,7.16
2019-04-03T22:39:16.402Z,7.11
2019-04-03T22:43:23.245Z,6.85
2019-04-03T22:47:31.133Z,6.83
2019-04-03T22:51:38.174Z,6.93
2019-04-03T22:55:46.539Z,7.03
2019-04-03T22:59:54.644Z,6.85
2019-04-03T23:04:04.961Z,6.99
2019-04-03T23:08:10.411Z,6.74
2019-04-03T23:12:17.140Z,6.77
2019-04-03T23:16:23.826Z,6.69
2019-04-03T23:20:30.556Z,6.67
2019-04-03T23:24:40.197Z,6.67
2019-04-03T23:28:46.929Z,6.67
2019-04-03T23:32:53.771Z,6.61
2019-04-03T23:37:00.579Z,6.74
2019-04-03T23:41:07.263Z,6.44
2019-04-03T23:45:14.061Z,6.81
2019-04-03T23:49:20.895Z,6.49
2019-04-03T23:53:27.723Z,6.82
2019-04-03T23:57:34.370Z,6.71
